sensor_id;sensor_type;location;lat;lon;timestamp;pressure;altitude;pressure_sealevel;temperature
41940;BMP180;23057;48.554;14.454;2023-02-28T00:00:46;94310.00;;;3.80
41940;BMP180;23057;48.554;14.454;2023-02-28T00:03:17;94308.00;;;3.80
41940;BMP180;23057;48.554;14.454;2023-02-28T00:05:48;94297.00;;;3.90
41940;BMP180;23057;48.554;14.454;2023-02-28T00:08:19;94297.00;;;3.90
41940;BMP180;23057;48.554;14.454;2023-02-28T00:10:49;94300.00;;;3.90
41940;BMP180;23057;48.554;14.454;2023-02-28T00:13:20;94288.00;;;3.90
41940;BMP180;23057;48.554;14.454;2023-02-28T00:16:02;94299.00;;;3.90
41940;BMP180;23057;48.554;14.454;2023-02-28T00:18:35;94285.00;;;3.90
41940;BMP180;23057;48.554;14.454;2023-02-28T00:21:07;94297.00;;;3.90
41940;BMP180;23057;48.554;14.454;2023-02-28T00:23:38;94291.00;;;3.80
41940;BMP180;23057;48.554;14.454;2023-02-28T00:26:09;94297.00;;;3.80
41940;BMP180;23057;48.554;14.454;2023-02-28T00:28:40;94282.00;;;3.80
41940;BMP180;23057;48.554;14.454;2023-02-28T00:31:11;94279.00;;;3.80
41940;BMP180;23057;48.554;14.454;2023-02-28T00:33:41;94279.00;;;3.80
41940;BMP180;23057;48.554;14.454;2023-02-28T00:36:12;94276.00;;;3.80
41940;BMP180;23057;48.554;14.454;2023-02-28T00:38:43;94283.00;;;3.80
41940;BMP180;23057;48.554;14.454;2023-02-28T00:41:14;94278.00;;;3.80
41940;BMP180;23057;48.554;14.454;2023-02-28T00:43:44;94282.00;;;3.80
41940;BMP180;23057;48.554;14.454;2023-02-28T00:46:15;94277.00;;;3.70
41940;BMP180;23057;48.554;14.454;2023-02-28T00:48:46;94273.00;;;3.70
41940;BMP180;23057;48.554;14.454;2023-02-28T00:51:17;94283.00;;;3.70
41940;BMP180;23057;48.554;14.454;2023-02-28T00:53:47;94273.00;;;3.70
41940;BMP180;23057;48.554;14.454;2023-02-28T00:56:18;94286.00;;;3.70
41940;BMP180;23057;48.554;14.454;2023-02-28T00:58:49;94278.00;;;3.70
41940;BMP180;23057;48.554;14.454;2023-02-28T01:01:20;94269.00;;;3.70
41940;BMP180;23057;48.554;14.454;2023-02-28T01:03:50;94277.00;;;3.60
41940;BMP180;23057;48.554;14.454;2023-02-28T01:06:21;94274.00;;;3.60
41940;BMP180;23057;48.554;14.454;2023-02-28T01:08:52;94268.00;;;3.60
41940;BMP180;23057;48.554;14.454;2023-02-28T01:11:23;94273.00;;;3.50
41940;BMP180;23057;48.554;14.454;2023-02-28T01:13:53;94257.00;;;3.50
41940;BMP180;23057;48.554;14.454;2023-02-28T01:16:25;94259.00;;;3.50
41940;BMP180;23057;48.554;14.454;2023-02-28T01:18:56;94262.00;;;3.40
41940;BMP180;23057;48.554;14.454;2023-02-28T01:21:27;94269.00;;;3.40
41940;BMP180;23057;48.554;14.454;2023-02-28T01:24:00;94262.00;;;3.40
41940;BMP180;23057;48.554;14.454;2023-02-28T01:26:31;94256.00;;;3.30
41940;BMP180;23057;48.554;14.454;2023-02-28T01:29:02;94263.00;;;3.30
41940;BMP180;23057;48.554;14.454;2023-02-28T01:31:33;94258.00;;;3.30
41940;BMP180;23057;48.554;14.454;2023-02-28T01:34:04;94264.00;;;3.30
41940;BMP180;23057;48.554;14.454;2023-02-28T01:36:35;94258.00;;;3.20
41940;BMP180;23057;48.554;14.454;2023-02-28T01:39:06;94255.00;;;3.20
41940;BMP180;23057;48.554;14.454;2023-02-28T01:41:37;94257.00;;;3.20
41940;BMP180;23057;48.554;14.454;2023-02-28T01:47:59;94251.00;;;3.10
41940;BMP180;23057;48.554;14.454;2023-02-28T01:50:36;94238.00;;;3.10
41940;BMP180;23057;48.554;14.454;2023-02-28T01:53:15;94246.00;;;3.10
41940;BMP180;23057;48.554;14.454;2023-02-28T01:55:50;94228.00;;;3.10
41940;BMP180;23057;48.554;14.454;2023-02-28T01:58:23;94222.00;;;3.10
41940;BMP180;23057;48.554;14.454;2023-02-28T02:00:54;94222.00;;;3.10
41940;BMP180;23057;48.554;14.454;2023-02-28T02:03:25;94220.00;;;3.00
41940;BMP180;23057;48.554;14.454;2023-02-28T02:05:57;94226.00;;;3.00
41940;BMP180;23057;48.554;14.454;2023-02-28T02:08:28;94218.00;;;2.90
41940;BMP180;23057;48.554;14.454;2023-02-28T02:11:01;94196.00;;;2.90
41940;BMP180;23057;48.554;14.454;2023-02-28T02:13:45;94217.00;;;2.90
41940;BMP180;23057;48.554;14.454;2023-02-28T02:23:07;94218.00;;;2.80
41940;BMP180;23057;48.554;14.454;2023-02-28T02:25:42;94208.00;;;2.80
41940;BMP180;23057;48.554;14.454;2023-02-28T02:31:05;94213.00;;;2.70
41940;BMP180;23057;48.554;14.454;2023-02-28T02:40:27;94218.00;;;2.70
41940;BMP180;23057;48.554;14.454;2023-02-28T02:43:15;94216.00;;;2.70
41940;BMP180;23057;48.554;14.454;2023-02-28T02:45:56;94215.00;;;2.60
41940;BMP180;23057;48.554;14.454;2023-02-28T02:48:34;94214.00;;;2.60
41940;BMP180;23057;48.554;14.454;2023-02-28T02:51:14;94209.00;;;2.60
41940;BMP180;23057;48.554;14.454;2023-02-28T02:53:54;94202.00;;;2.60
41940;BMP180;23057;48.554;14.454;2023-02-28T02:56:31;94219.00;;;2.60
41940;BMP180;23057;48.554;14.454;2023-02-28T02:59:07;94207.00;;;2.50
41940;BMP180;23057;48.554;14.454;2023-02-28T03:01:42;94210.00;;;2.50
41940;BMP180;23057;48.554;14.454;2023-02-28T03:04:17;94213.00;;;2.50
41940;BMP180;23057;48.554;14.454;2023-02-28T03:06:52;94209.00;;;2.50
41940;BMP180;23057;48.554;14.454;2023-02-28T03:09:26;94214.00;;;2.50
41940;BMP180;23057;48.554;14.454;2023-02-28T03:11:56;94202.00;;;2.40
41940;BMP180;23057;48.554;14.454;2023-02-28T03:14:56;94211.00;;;2.40
41940;BMP180;23057;48.554;14.454;2023-02-28T03:17:58;94212.00;;;2.40
41940;BMP180;23057;48.554;14.454;2023-02-28T03:20:45;94202.00;;;2.50
41940;BMP180;23057;48.554;14.454;2023-02-28T03:23:40;94214.00;;;2.40
41940;BMP180;23057;48.554;14.454;2023-02-28T03:26:23;94207.00;;;2.40
41940;BMP180;23057;48.554;14.454;2023-02-28T03:31:48;94186.00;;;2.40
41940;BMP180;23057;48.554;14.454;2023-02-28T03:34:37;94202.00;;;2.40
41940;BMP180;23057;48.554;14.454;2023-02-28T03:37:18;94201.00;;;2.40
41940;BMP180;23057;48.554;14.454;2023-02-28T03:40:00;94198.00;;;2.40
41940;BMP180;23057;48.554;14.454;2023-02-28T03:42:38;94204.00;;;2.40
41940;BMP180;23057;48.554;14.454;2023-02-28T03:45:15;94207.00;;;2.50
41940;BMP180;23057;48.554;14.454;2023-02-28T03:47:55;94203.00;;;2.50
41940;BMP180;23057;48.554;14.454;2023-02-28T03:50:37;94205.00;;;2.50
41940;BMP180;23057;48.554;14.454;2023-02-28T03:53:25;94201.00;;;2.40
41940;BMP180;23057;48.554;14.454;2023-02-28T03:56:25;94205.00;;;2.50
41940;BMP180;23057;48.554;14.454;2023-02-28T03:59:10;94209.00;;;2.50
41940;BMP180;23057;48.554;14.454;2023-02-28T04:01:50;94208.00;;;2.50
41940;BMP180;23057;48.554;14.454;2023-02-28T04:04:22;94208.00;;;2.50
41940;BMP180;23057;48.554;14.454;2023-02-28T04:07:01;94204.00;;;2.50
41940;BMP180;23057;48.554;14.454;2023-02-28T04:09:37;94211.00;;;2.50
41940;BMP180;23057;48.554;14.454;2023-02-28T04:12:08;94209.00;;;2.50
41940;BMP180;23057;48.554;14.454;2023-02-28T04:14:39;94205.00;;;2.50
41940;BMP180;23057;48.554;14.454;2023-02-28T04:17:10;94211.00;;;2.40
41940;BMP180;23057;48.554;14.454;2023-02-28T04:19:41;94205.00;;;2.40
41940;BMP180;23057;48.554;14.454;2023-02-28T04:22:11;94205.00;;;2.30
41940;BMP180;23057;48.554;14.454;2023-02-28T04:24:42;94209.00;;;2.30
41940;BMP180;23057;48.554;14.454;2023-02-28T04:27:13;94191.00;;;2.30
41940;BMP180;23057;48.554;14.454;2023-02-28T04:29:46;94195.00;;;2.30
41940;BMP180;23057;48.554;14.454;2023-02-28T04:32:17;94192.00;;;2.20
41940;BMP180;23057;48.554;14.454;2023-02-28T04:34:48;94188.00;;;2.20
41940;BMP180;23057;48.554;14.454;2023-02-28T04:37:18;94188.00;;;2.20
41940;BMP180;23057;48.554;14.454;2023-02-28T04:39:49;94183.00;;;2.10
41940;BMP180;23057;48.554;14.454;2023-02-28T04:42:20;94184.00;;;2.10
41940;BMP180;23057;48.554;14.454;2023-02-28T04:44:50;94186.00;;;2.10
41940;BMP180;23057;48.554;14.454;2023-02-28T04:47:21;94179.00;;;2.00
41940;BMP180;23057;48.554;14.454;2023-02-28T04:49:52;94186.00;;;2.00
41940;BMP180;23057;48.554;14.454;2023-02-28T04:52:23;94184.00;;;2.00
41940;BMP180;23057;48.554;14.454;2023-02-28T04:54:53;94182.00;;;2.00
41940;BMP180;23057;48.554;14.454;2023-02-28T04:57:24;94183.00;;;2.00
41940;BMP180;23057;48.554;14.454;2023-02-28T04:59:55;94197.00;;;2.00
41940;BMP180;23057;48.554;14.454;2023-02-28T05:02:25;94206.00;;;2.00
41940;BMP180;23057;48.554;14.454;2023-02-28T05:04:56;94197.00;;;2.00
41940;BMP180;23057;48.554;14.454;2023-02-28T05:07:27;94194.00;;;2.10
41940;BMP180;23057;48.554;14.454;2023-02-28T05:09:58;94198.00;;;2.10
41940;BMP180;23057;48.554;14.454;2023-02-28T05:12:28;94207.00;;;2.10
41940;BMP180;23057;48.554;14.454;2023-02-28T05:14:59;94198.00;;;2.10
41940;BMP180;23057;48.554;14.454;2023-02-28T05:17:31;94193.00;;;2.10
41940;BMP180;23057;48.554;14.454;2023-02-28T05:20:02;94189.00;;;2.10
41940;BMP180;23057;48.554;14.454;2023-02-28T05:22:35;94199.00;;;2.10
41940;BMP180;23057;48.554;14.454;2023-02-28T05:25:06;94198.00;;;2.10
41940;BMP180;23057;48.554;14.454;2023-02-28T05:27:49;94202.00;;;2.00
41940;BMP180;23057;48.554;14.454;2023-02-28T05:30:20;94207.00;;;2.00
41940;BMP180;23057;48.554;14.454;2023-02-28T05:32:51;94195.00;;;2.00
41940;BMP180;23057;48.554;14.454;2023-02-28T05:35:22;94201.00;;;2.00
41940;BMP180;23057;48.554;14.454;2023-02-28T05:37:53;94204.00;;;2.00
41940;BMP180;23057;48.554;14.454;2023-02-28T05:40:24;94211.00;;;2.00
41940;BMP180;23057;48.554;14.454;2023-02-28T05:42:54;94211.00;;;2.00
41940;BMP180;23057;48.554;14.454;2023-02-28T05:45:25;94218.00;;;2.00
41940;BMP180;23057;48.554;14.454;2023-02-28T05:47:56;94213.00;;;2.00
41940;BMP180;23057;48.554;14.454;2023-02-28T05:50:27;94208.00;;;2.00
41940;BMP180;23057;48.554;14.454;2023-02-28T05:52:58;94214.00;;;2.00
41940;BMP180;23057;48.554;14.454;2023-02-28T05:55:28;94210.00;;;2.10
41940;BMP180;23057;48.554;14.454;2023-02-28T05:57:59;94224.00;;;2.10
41940;BMP180;23057;48.554;14.454;2023-02-28T06:00:30;94223.00;;;2.10
41940;BMP180;23057;48.554;14.454;2023-02-28T06:03:01;94219.00;;;2.10
41940;BMP180;23057;48.554;14.454;2023-02-28T06:05:32;94220.00;;;2.20
41940;BMP180;23057;48.554;14.454;2023-02-28T06:08:03;94223.00;;;2.20
41940;BMP180;23057;48.554;14.454;2023-02-28T06:10:36;94216.00;;;2.30
41940;BMP180;23057;48.554;14.454;2023-02-28T06:13:06;94224.00;;;2.50
41940;BMP180;23057;48.554;14.454;2023-02-28T06:15:37;94224.00;;;2.60
41940;BMP180;23057;48.554;14.454;2023-02-28T06:18:08;94238.00;;;2.70
41940;BMP180;23057;48.554;14.454;2023-02-28T06:20:39;94234.00;;;2.80
41940;BMP180;23057;48.554;14.454;2023-02-28T06:23:10;94237.00;;;3.00
41940;BMP180;23057;48.554;14.454;2023-02-28T06:25:44;94223.00;;;3.20
41940;BMP180;23057;48.554;14.454;2023-02-28T06:28:16;94232.00;;;3.40
41940;BMP180;23057;48.554;14.454;2023-02-28T06:30:46;94230.00;;;3.50
41940;BMP180;23057;48.554;14.454;2023-02-28T06:33:17;94239.00;;;3.70
41940;BMP180;23057;48.554;14.454;2023-02-28T06:35:51;94240.00;;;3.80
41940;BMP180;23057;48.554;14.454;2023-02-28T06:38:22;94245.00;;;3.90
41940;BMP180;23057;48.554;14.454;2023-02-28T06:40:55;94238.00;;;4.00
41940;BMP180;23057;48.554;14.454;2023-02-28T06:43:29;94238.00;;;4.10
41940;BMP180;23057;48.554;14.454;2023-02-28T06:46:05;94228.00;;;4.20
41940;BMP180;23057;48.554;14.454;2023-02-28T06:48:37;94239.00;;;4.30
41940;BMP180;23057;48.554;14.454;2023-02-28T06:51:10;94244.00;;;4.30
41940;BMP180;23057;48.554;14.454;2023-02-28T06:53:44;94242.00;;;4.20
41940;BMP180;23057;48.554;14.454;2023-02-28T06:56:16;94251.00;;;4.20
41940;BMP180;23057;48.554;14.454;2023-02-28T06:58:49;94241.00;;;4.30
41940;BMP180;23057;48.554;14.454;2023-02-28T07:01:21;94245.00;;;4.30
41940;BMP180;23057;48.554;14.454;2023-02-28T07:03:55;94247.00;;;4.20
41940;BMP180;23057;48.554;14.454;2023-02-28T07:06:26;94241.00;;;4.30
41940;BMP180;23057;48.554;14.454;2023-02-28T07:08:57;94237.00;;;4.40
41940;BMP180;23057;48.554;14.454;2023-02-28T07:11:28;94244.00;;;4.40
41940;BMP180;23057;48.554;14.454;2023-02-28T07:13:59;94242.00;;;4.50
41940;BMP180;23057;48.554;14.454;2023-02-28T07:16:30;94236.00;;;4.50
41940;BMP180;23057;48.554;14.454;2023-02-28T07:19:00;94238.00;;;4.60
41940;BMP180;23057;48.554;14.454;2023-02-28T07:21:31;94237.00;;;4.60
41940;BMP180;23057;48.554;14.454;2023-02-28T07:24:02;94236.00;;;4.60
41940;BMP180;23057;48.554;14.454;2023-02-28T07:26:33;94229.00;;;4.70
41940;BMP180;23057;48.554;14.454;2023-02-28T07:29:07;94239.00;;;4.70
41940;BMP180;23057;48.554;14.454;2023-02-28T07:31:38;94242.00;;;4.70
41940;BMP180;23057;48.554;14.454;2023-02-28T07:34:08;94234.00;;;4.70
41940;BMP180;23057;48.554;14.454;2023-02-28T07:36:39;94239.00;;;4.80
41940;BMP180;23057;48.554;14.454;2023-02-28T07:39:10;94235.00;;;4.80
41940;BMP180;23057;48.554;14.454;2023-02-28T07:41:41;94241.00;;;4.80
41940;BMP180;23057;48.554;14.454;2023-02-28T07:44:13;94243.00;;;4.80
41940;BMP180;23057;48.554;14.454;2023-02-28T07:46:44;94249.00;;;4.80
41940;BMP180;23057;48.554;14.454;2023-02-28T07:49:15;94253.00;;;4.80
41940;BMP180;23057;48.554;14.454;2023-02-28T07:51:46;94246.00;;;4.90
41940;BMP180;23057;48.554;14.454;2023-02-28T07:54:17;94250.00;;;4.90
41940;BMP180;23057;48.554;14.454;2023-02-28T07:56:47;94246.00;;;5.00
41940;BMP180;23057;48.554;14.454;2023-02-28T07:59:18;94239.00;;;5.00
41940;BMP180;23057;48.554;14.454;2023-02-28T08:01:49;94248.00;;;5.00
41940;BMP180;23057;48.554;14.454;2023-02-28T08:04:20;94255.00;;;5.10
41940;BMP180;23057;48.554;14.454;2023-02-28T08:06:51;94250.00;;;5.20
41940;BMP180;23057;48.554;14.454;2023-02-28T08:09:26;94247.00;;;5.30
41940;BMP180;23057;48.554;14.454;2023-02-28T08:11:57;94257.00;;;5.40
41940;BMP180;23057;48.554;14.454;2023-02-28T08:14:28;94256.00;;;5.40
41940;BMP180;23057;48.554;14.454;2023-02-28T08:16:59;94260.00;;;5.60
41940;BMP180;23057;48.554;14.454;2023-02-28T08:19:30;94248.00;;;5.70
41940;BMP180;23057;48.554;14.454;2023-02-28T08:22:01;94258.00;;;5.70
41940;BMP180;23057;48.554;14.454;2023-02-28T08:24:31;94246.00;;;5.80
41940;BMP180;23057;48.554;14.454;2023-02-28T08:27:03;94252.00;;;5.90
41940;BMP180;23057;48.554;14.454;2023-02-28T08:29:37;94258.00;;;5.90
41940;BMP180;23057;48.554;14.454;2023-02-28T08:32:08;94254.00;;;6.00
41940;BMP180;23057;48.554;14.454;2023-02-28T08:34:40;94256.00;;;6.00
41940;BMP180;23057;48.554;14.454;2023-02-28T08:37:10;94262.00;;;6.10
41940;BMP180;23057;48.554;14.454;2023-02-28T08:39:41;94264.00;;;6.20
41940;BMP180;23057;48.554;14.454;2023-02-28T08:42:12;94265.00;;;6.30
41940;BMP180;23057;48.554;14.454;2023-02-28T08:44:43;94272.00;;;6.40
41940;BMP180;23057;48.554;14.454;2023-02-28T08:47:13;94277.00;;;6.50
41940;BMP180;23057;48.554;14.454;2023-02-28T08:49:44;94278.00;;;6.60
41940;BMP180;23057;48.554;14.454;2023-02-28T08:52:15;94282.00;;;6.60
41940;BMP180;23057;48.554;14.454;2023-02-28T08:54:46;94287.00;;;6.70
41940;BMP180;23057;48.554;14.454;2023-02-28T08:57:16;94284.00;;;6.70
41940;BMP180;23057;48.554;14.454;2023-02-28T08:59:47;94274.00;;;6.70
41940;BMP180;23057;48.554;14.454;2023-02-28T09:02:18;94293.00;;;6.70
41940;BMP180;23057;48.554;14.454;2023-02-28T09:04:49;94288.00;;;6.70
41940;BMP180;23057;48.554;14.454;2023-02-28T09:07:19;94289.00;;;6.80
41940;BMP180;23057;48.554;14.454;2023-02-28T09:09:50;94282.00;;;6.80
41940;BMP180;23057;48.554;14.454;2023-02-28T09:12:25;94286.00;;;6.90
41940;BMP180;23057;48.554;14.454;2023-02-28T09:14:57;94292.00;;;6.90
41940;BMP180;23057;48.554;14.454;2023-02-28T09:17:28;94300.00;;;6.90
41940;BMP180;23057;48.554;14.454;2023-02-28T09:19:58;94298.00;;;6.90
41940;BMP180;23057;48.554;14.454;2023-02-28T09:22:29;94301.00;;;6.80
41940;BMP180;23057;48.554;14.454;2023-02-28T09:25:00;94302.00;;;6.80
41940;BMP180;23057;48.554;14.454;2023-02-28T09:27:30;94306.00;;;6.90
41940;BMP180;23057;48.554;14.454;2023-02-28T09:30:01;94298.00;;;6.90
41940;BMP180;23057;48.554;14.454;2023-02-28T09:32:32;94303.00;;;6.90
41940;BMP180;23057;48.554;14.454;2023-02-28T09:35:03;94301.00;;;6.90
41940;BMP180;23057;48.554;14.454;2023-02-28T09:37:34;94308.00;;;6.90
41940;BMP180;23057;48.554;14.454;2023-02-28T09:40:05;94313.00;;;6.90
41940;BMP180;23057;48.554;14.454;2023-02-28T09:42:36;94312.00;;;6.90
41940;BMP180;23057;48.554;14.454;2023-02-28T09:45:22;94318.00;;;7.00
41940;BMP180;23057;48.554;14.454;2023-02-28T09:48:02;94311.00;;;7.00
41940;BMP180;23057;48.554;14.454;2023-02-28T09:50:57;94325.00;;;7.00
41940;BMP180;23057;48.554;14.454;2023-02-28T09:53:35;94327.00;;;7.00
41940;BMP180;23057;48.554;14.454;2023-02-28T09:56:12;94324.00;;;7.10
41940;BMP180;23057;48.554;14.454;2023-02-28T09:58:55;94330.00;;;7.10
41940;BMP180;23057;48.554;14.454;2023-02-28T10:01:39;94322.00;;;7.20
41940;BMP180;23057;48.554;14.454;2023-02-28T10:04:37;94334.00;;;7.20
41940;BMP180;23057;48.554;14.454;2023-02-28T10:10:42;94345.00;;;7.20
41940;BMP180;23057;48.554;14.454;2023-02-28T10:13:36;94345.00;;;7.20
41940;BMP180;23057;48.554;14.454;2023-02-28T10:16:37;94352.00;;;7.20
41940;BMP180;23057;48.554;14.454;2023-02-28T10:19:38;94349.00;;;7.10
41940;BMP180;23057;48.554;14.454;2023-02-28T10:22:16;94352.00;;;7.10
41940;BMP180;23057;48.554;14.454;2023-02-28T10:24:53;94335.00;;;7.00
41940;BMP180;23057;48.554;14.454;2023-02-28T10:27:31;94348.00;;;7.10
41940;BMP180;23057;48.554;14.454;2023-02-28T10:30:03;94353.00;;;7.10
41940;BMP180;23057;48.554;14.454;2023-02-28T10:32:37;94337.00;;;7.00
41940;BMP180;23057;48.554;14.454;2023-02-28T10:35:19;94347.00;;;7.10
41940;BMP180;23057;48.554;14.454;2023-02-28T10:37:58;94336.00;;;7.10
41940;BMP180;23057;48.554;14.454;2023-02-28T10:40:34;94345.00;;;7.10
41940;BMP180;23057;48.554;14.454;2023-02-28T10:49:03;94328.00;;;7.30
41940;BMP180;23057;48.554;14.454;2023-02-28T10:51:38;94342.00;;;7.30
41940;BMP180;23057;48.554;14.454;2023-02-28T10:54:19;94334.00;;;7.30
41940;BMP180;23057;48.554;14.454;2023-02-28T10:57:07;94331.00;;;7.40
41940;BMP180;23057;48.554;14.454;2023-02-28T10:59:53;94324.00;;;7.40
41940;BMP180;23057;48.554;14.454;2023-02-28T11:02:43;94326.00;;;7.50
41940;BMP180;23057;48.554;14.454;2023-02-28T11:05:35;94329.00;;;7.50
41940;BMP180;23057;48.554;14.454;2023-02-28T11:08:10;94329.00;;;7.60
41940;BMP180;23057;48.554;14.454;2023-02-28T11:10:54;94322.00;;;7.60
41940;BMP180;23057;48.554;14.454;2023-02-28T11:13:33;94327.00;;;7.60
41940;BMP180;23057;48.554;14.454;2023-02-28T11:16:09;94316.00;;;7.70
41940;BMP180;23057;48.554;14.454;2023-02-28T11:21:27;94323.00;;;7.70
41940;BMP180;23057;48.554;14.454;2023-02-28T11:24:12;94312.00;;;7.70
41940;BMP180;23057;48.554;14.454;2023-02-28T11:26:47;94316.00;;;7.70
41940;BMP180;23057;48.554;14.454;2023-02-28T11:29:22;94317.00;;;7.70
41940;BMP180;23057;48.554;14.454;2023-02-28T11:34:32;94299.00;;;7.70
41940;BMP180;23057;48.554;14.454;2023-02-28T11:37:04;94307.00;;;7.80
41940;BMP180;23057;48.554;14.454;2023-02-28T11:39:40;94293.00;;;7.90
41940;BMP180;23057;48.554;14.454;2023-02-28T11:46:13;94292.00;;;7.90
41940;BMP180;23057;48.554;14.454;2023-02-28T11:49:32;94296.00;;;7.90
41940;BMP180;23057;48.554;14.454;2023-02-28T11:52:45;94295.00;;;8.00
41940;BMP180;23057;48.554;14.454;2023-02-28T11:55:30;94296.00;;;8.00
41940;BMP180;23057;48.554;14.454;2023-02-28T12:01:36;94286.00;;;8.10
41940;BMP180;23057;48.554;14.454;2023-02-28T12:04:53;94298.00;;;8.00
41940;BMP180;23057;48.554;14.454;2023-02-28T12:08:20;94308.00;;;8.00
41940;BMP180;23057;48.554;14.454;2023-02-28T12:11:52;94294.00;;;8.00
41940;BMP180;23057;48.554;14.454;2023-02-28T12:24:17;94287.00;;;7.90
41940;BMP180;23057;48.554;14.454;2023-02-28T12:27:07;94283.00;;;7.90
41940;BMP180;23057;48.554;14.454;2023-02-28T12:29:52;94280.00;;;7.90
41940;BMP180;23057;48.554;14.454;2023-02-28T12:32:37;94273.00;;;7.90
41940;BMP180;23057;48.554;14.454;2023-02-28T12:35:14;94287.00;;;7.90
41940;BMP180;23057;48.554;14.454;2023-02-28T12:38:14;94284.00;;;7.90
41940;BMP180;23057;48.554;14.454;2023-02-28T12:43:32;94282.00;;;8.10
41940;BMP180;23057;48.554;14.454;2023-02-28T12:46:29;94298.00;;;8.10
41940;BMP180;23057;48.554;14.454;2023-02-28T12:49:15;94291.00;;;8.00
41940;BMP180;23057;48.554;14.454;2023-02-28T12:51:50;94287.00;;;7.90
41940;BMP180;23057;48.554;14.454;2023-02-28T12:58:36;94268.00;;;7.90
41940;BMP180;23057;48.554;14.454;2023-02-28T13:04:11;94288.00;;;7.80
41940;BMP180;23057;48.554;14.454;2023-02-28T13:10:04;94278.00;;;7.60
41940;BMP180;23057;48.554;14.454;2023-02-28T13:12:47;94280.00;;;7.60
41940;BMP180;23057;48.554;14.454;2023-02-28T13:15:27;94279.00;;;7.60
41940;BMP180;23057;48.554;14.454;2023-02-28T13:17:59;94294.00;;;7.60
41940;BMP180;23057;48.554;14.454;2023-02-28T13:20:34;94278.00;;;7.60
41940;BMP180;23057;48.554;14.454;2023-02-28T13:34:49;94295.00;;;7.60
41940;BMP180;23057;48.554;14.454;2023-02-28T13:37:43;94297.00;;;7.60
41940;BMP180;23057;48.554;14.454;2023-02-28T13:43:01;94295.00;;;7.60
41940;BMP180;23057;48.554;14.454;2023-02-28T13:45:31;94301.00;;;7.60
41940;BMP180;23057;48.554;14.454;2023-02-28T13:48:17;94292.00;;;7.60
41940;BMP180;23057;48.554;14.454;2023-02-28T13:50:49;94300.00;;;7.60
41940;BMP180;23057;48.554;14.454;2023-02-28T13:53:48;94294.00;;;7.60
41940;BMP180;23057;48.554;14.454;2023-02-28T13:56:41;94295.00;;;7.60
41940;BMP180;23057;48.554;14.454;2023-02-28T14:05:34;94298.00;;;7.60
41940;BMP180;23057;48.554;14.454;2023-02-28T14:08:12;94294.00;;;7.60
41940;BMP180;23057;48.554;14.454;2023-02-28T14:10:49;94289.00;;;7.60
41940;BMP180;23057;48.554;14.454;2023-02-28T14:13:46;94295.00;;;7.60
41940;BMP180;23057;48.554;14.454;2023-02-28T14:16:23;94289.00;;;7.60
41940;BMP180;23057;48.554;14.454;2023-02-28T14:19:15;94300.00;;;7.60
41940;BMP180;23057;48.554;14.454;2023-02-28T14:31:33;94301.00;;;7.60
41940;BMP180;23057;48.554;14.454;2023-02-28T14:34:23;94303.00;;;7.60
41940;BMP180;23057;48.554;14.454;2023-02-28T14:37:03;94297.00;;;7.60
41940;BMP180;23057;48.554;14.454;2023-02-28T14:39:35;94300.00;;;7.60
41940;BMP180;23057;48.554;14.454;2023-02-28T14:42:28;94293.00;;;7.60
41940;BMP180;23057;48.554;14.454;2023-02-28T14:45:18;94307.00;;;7.60
41940;BMP180;23057;48.554;14.454;2023-02-28T14:47:51;94306.00;;;7.60
41940;BMP180;23057;48.554;14.454;2023-02-28T14:50:34;94304.00;;;7.60
41940;BMP180;23057;48.554;14.454;2023-02-28T14:53:17;94297.00;;;7.60
41940;BMP180;23057;48.554;14.454;2023-02-28T14:55:49;94293.00;;;7.70
41940;BMP180;23057;48.554;14.454;2023-02-28T14:58:28;94307.00;;;7.60
41940;BMP180;23057;48.554;14.454;2023-02-28T15:01:03;94301.00;;;7.60
41940;BMP180;23057;48.554;14.454;2023-02-28T15:03:39;94301.00;;;7.60
41940;BMP180;23057;48.554;14.454;2023-02-28T15:06:15;94297.00;;;7.50
41940;BMP180;23057;48.554;14.454;2023-02-28T15:08:47;94306.00;;;7.50
41940;BMP180;23057;48.554;14.454;2023-02-28T15:11:19;94305.00;;;7.40
41940;BMP180;23057;48.554;14.454;2023-02-28T15:13:54;94317.00;;;7.40
41940;BMP180;23057;48.554;14.454;2023-02-28T15:16:34;94310.00;;;7.30
41940;BMP180;23057;48.554;14.454;2023-02-28T15:22:00;94307.00;;;7.30
41940;BMP180;23057;48.554;14.454;2023-02-28T15:24:38;94296.00;;;7.30
41940;BMP180;23057;48.554;14.454;2023-02-28T15:27:21;94312.00;;;7.20
41940;BMP180;23057;48.554;14.454;2023-02-28T15:30:04;94312.00;;;7.20
41940;BMP180;23057;48.554;14.454;2023-02-28T15:32:38;94318.00;;;7.20
41940;BMP180;23057;48.554;14.454;2023-02-28T15:38:15;94316.00;;;7.10
41940;BMP180;23057;48.554;14.454;2023-02-28T15:40:55;94315.00;;;7.10
41940;BMP180;23057;48.554;14.454;2023-02-28T15:43:32;94321.00;;;7.10
41940;BMP180;23057;48.554;14.454;2023-02-28T15:46:07;94328.00;;;7.10
41940;BMP180;23057;48.554;14.454;2023-02-28T15:48:49;94321.00;;;7.10
41940;BMP180;23057;48.554;14.454;2023-02-28T15:51:36;94311.00;;;7.10
41940;BMP180;23057;48.554;14.454;2023-02-28T15:54:22;94319.00;;;7.10
41940;BMP180;23057;48.554;14.454;2023-02-28T15:57:03;94324.00;;;7.10
41940;BMP180;23057;48.554;14.454;2023-02-28T15:59:38;94323.00;;;7.10
41940;BMP180;23057;48.554;14.454;2023-02-28T16:07:41;94326.00;;;7.10
41940;BMP180;23057;48.554;14.454;2023-02-28T16:10:13;94322.00;;;7.10
41940;BMP180;23057;48.554;14.454;2023-02-28T16:12:45;94330.00;;;7.10
41940;BMP180;23057;48.554;14.454;2023-02-28T16:15:20;94323.00;;;7.10
41940;BMP180;23057;48.554;14.454;2023-02-28T16:17:56;94325.00;;;7.10
41940;BMP180;23057;48.554;14.454;2023-02-28T16:20:29;94319.00;;;7.10
41940;BMP180;23057;48.554;14.454;2023-02-28T16:23:01;94330.00;;;7.10
41940;BMP180;23057;48.554;14.454;2023-02-28T16:25:38;94327.00;;;7.10
41940;BMP180;23057;48.554;14.454;2023-02-28T16:28:33;94323.00;;;7.10
41940;BMP180;23057;48.554;14.454;2023-02-28T16:31:07;94325.00;;;7.10
41940;BMP180;23057;48.554;14.454;2023-02-28T16:33:38;94322.00;;;7.20
41940;BMP180;23057;48.554;14.454;2023-02-28T16:36:13;94324.00;;;7.20
41940;BMP180;23057;48.554;14.454;2023-02-28T16:38:45;94328.00;;;7.20
41940;BMP180;23057;48.554;14.454;2023-02-28T16:41:19;94328.00;;;7.20
41940;BMP180;23057;48.554;14.454;2023-02-28T16:43:55;94330.00;;;7.20
41940;BMP180;23057;48.554;14.454;2023-02-28T16:46:33;94326.00;;;7.20
41940;BMP180;23057;48.554;14.454;2023-02-28T16:49:11;94337.00;;;7.20